CheckWX is a tool to help pilots better visualize weather data.  It is not intended as a substitute for an official pre-flight weather briefing.

02:49:02 UTC

KSYN METAR
Stanton Airfield Airport
Stanton, Minnesota, USA
Current

34 mins ago

KSYN 230215Z AUTO 22003KT 10SM CLR 13/12 A2992 RMK AO2 T01260115
Observed
Sep-23 @ 02:15 UTC
Wind
  • 220° at 3 KTS
Visibility
10 SM
Flight Rules
VFR
Cloud Levels
  • Clear skies
Temperature
13°C / 55°F
Dewpoint
12°C / 54°F
Humidity
94%
Altimeter
29.92" Hg
Pressure
1013.22 hPa
Previous

54 mins ago

KSYN 230155Z AUTO 21003KT 10SM CLR 13/12 A2991 RMK AO2 T01270115
Observed
Sep-23 @ 01:55 UTC
Wind
  • 210° at 3 KTS
Visibility
10 SM
Flight Rules
VFR
Cloud Levels
  • Clear skies
Temperature
13°C / 55°F
Dewpoint
12°C / 54°F
Humidity
94%
Altimeter
29.91" Hg
Pressure
1012.92 hPa
Previous

1 hour ago

KSYN 230135Z AUTO 24004KT 10SM CLR 14/12 A2991 RMK AO2 T01350117
Observed
Sep-23 @ 01:35 UTC
Wind
  • 240° at 4 KTS
Visibility
10 SM
Flight Rules
VFR
Cloud Levels
  • Clear skies
Temperature
14°C / 57°F
Dewpoint
12°C / 54°F
Humidity
88%
Altimeter
29.91" Hg
Pressure
1012.92 hPa